sensor_id;sensor_type;location;lat;lon;timestamp;pressure;altitude;pressure_sealevel;temperature;humidity
46846;BME280;33947;46.804;134.252;2023-05-09T00:01:26;99865.53;;;19.43;25.77
46846;BME280;33947;46.804;134.252;2023-05-09T00:04:42;99854.00;;;19.16;25.99
46846;BME280;33947;46.804;134.252;2023-05-09T00:07:49;99867.75;;;19.73;25.49
46846;BME280;33947;46.804;134.252;2023-05-09T00:10:53;99858.94;;;19.71;24.77
46846;BME280;33947;46.804;134.252;2023-05-09T00:13:59;99864.22;;;19.84;23.95
46846;BME280;33947;46.804;134.252;2023-05-09T00:17:03;99851.31;;;19.41;24.83
46846;BME280;33947;46.804;134.252;2023-05-09T00:20:08;99857.44;;;20.03;24.43
46846;BME280;33947;46.804;134.252;2023-05-09T00:23:14;99860.81;;;21.30;22.75
46846;BME280;33947;46.804;134.252;2023-05-09T00:26:19;99868.78;;;21.76;21.89
46846;BME280;33947;46.804;134.252;2023-05-09T00:29:26;99868.41;;;21.36;22.48
46846;BME280;33947;46.804;134.252;2023-05-09T00:32:32;99882.91;;;21.47;22.53
46846;BME280;33947;46.804;134.252;2023-05-09T00:35:37;99868.78;;;20.31;23.07
46846;BME280;33947;46.804;134.252;2023-05-09T00:38:42;99866.91;;;17.96;24.43
46846;BME280;33947;46.804;134.252;2023-05-09T00:41:46;99840.16;;;17.82;24.91
46846;BME280;33947;46.804;134.252;2023-05-09T00:44:54;99851.84;;;17.27;25.02
46846;BME280;33947;46.804;134.252;2023-05-09T00:47:57;99856.63;;;16.22;26.23
46846;BME280;33947;46.804;134.252;2023-05-09T00:51:02;99877.09;;;15.94;26.38
46846;BME280;33947;46.804;134.252;2023-05-09T00:54:08;99860.03;;;15.18;26.44
46846;BME280;33947;46.804;134.252;2023-05-09T00:57:12;99871.44;;;14.56;27.62
46846;BME280;33947;46.804;134.252;2023-05-09T01:00:17;99860.16;;;14.17;28.76
46846;BME280;33947;46.804;134.252;2023-05-09T01:07:49;99875.56;;;13.77;29.65
46846;BME280;33947;46.804;134.252;2023-05-09T01:12:06;99868.16;;;13.99;29.63
46846;BME280;33947;46.804;134.252;2023-05-09T01:22:14;99861.22;;;17.88;24.14
46846;BME280;33947;46.804;134.252;2023-05-09T01:33:05;99854.91;;;15.29;25.50
46846;BME280;33947;46.804;134.252;2023-05-09T01:36:28;99857.03;;;13.91;27.17
46846;BME280;33947;46.804;134.252;2023-05-09T01:39:52;99852.00;;;14.02;27.47
46846;BME280;33947;46.804;134.252;2023-05-09T01:43:18;99866.06;;;13.88;27.54
46846;BME280;33947;46.804;134.252;2023-05-09T01:46:26;99855.69;;;14.00;25.62
46846;BME280;33947;46.804;134.252;2023-05-09T01:49:37;99888.72;;;13.44;27.82
46846;BME280;33947;46.804;134.252;2023-05-09T01:52:51;99898.13;;;13.15;28.83
46846;BME280;33947;46.804;134.252;2023-05-09T01:56:14;99891.00;;;12.96;28.31
46846;BME280;33947;46.804;134.252;2023-05-09T01:59:22;99883.38;;;13.44;28.04
46846;BME280;33947;46.804;134.252;2023-05-09T02:02:37;99891.53;;;13.41;28.17
46846;BME280;33947;46.804;134.252;2023-05-09T02:05:56;99891.56;;;13.22;27.75
46846;BME280;33947;46.804;134.252;2023-05-09T02:09:05;99926.91;;;12.68;28.69
46846;BME280;33947;46.804;134.252;2023-05-09T02:12:12;99930.41;;;13.28;28.45
46846;BME280;33947;46.804;134.252;2023-05-09T02:15:16;99914.53;;;13.25;28.78
46846;BME280;33947;46.804;134.252;2023-05-09T02:18:34;99867.22;;;13.48;27.84
46846;BME280;33947;46.804;134.252;2023-05-09T02:21:55;99828.06;;;13.11;27.03
46846;BME280;33947;46.804;134.252;2023-05-09T02:25:57;99814.22;;;13.40;27.15
46846;BME280;33947;46.804;134.252;2023-05-09T02:29:22;99825.78;;;13.58;25.97
46846;BME280;33947;46.804;134.252;2023-05-09T02:33:20;99828.22;;;14.47;24.66
46846;BME280;33947;46.804;134.252;2023-05-09T02:36:51;99813.13;;;14.80;24.93
46846;BME280;33947;46.804;134.252;2023-05-09T02:40:42;99839.69;;;14.83;24.95
46846;BME280;33947;46.804;134.252;2023-05-09T02:44:06;99816.41;;;14.36;26.28
46846;BME280;33947;46.804;134.252;2023-05-09T02:47:22;99909.91;;;15.82;25.28
46846;BME280;33947;46.804;134.252;2023-05-09T02:50:32;99929.16;;;15.42;25.82
46846;BME280;33947;46.804;134.252;2023-05-09T02:53:48;99849.47;;;14.67;25.00
46846;BME280;33947;46.804;134.252;2023-05-09T02:57:05;99922.69;;;14.64;25.42
46846;BME280;33947;46.804;134.252;2023-05-09T03:00:13;99849.44;;;15.00;25.39
46846;BME280;33947;46.804;134.252;2023-05-09T03:03:19;99846.41;;;16.14;24.01
46846;BME280;33947;46.804;134.252;2023-05-09T03:06:27;99910.25;;;15.29;25.24
46846;BME280;33947;46.804;134.252;2023-05-09T03:09:41;99843.97;;;14.20;24.56
46846;BME280;33947;46.804;134.252;2023-05-09T03:12:56;99900.47;;;15.60;25.12
46846;BME280;33947;46.804;134.252;2023-05-09T03:16:19;99935.69;;;15.52;24.34
46846;BME280;33947;46.804;134.252;2023-05-09T03:19:33;99922.63;;;15.15;24.10
46846;BME280;33947;46.804;134.252;2023-05-09T03:22:44;99910.41;;;14.26;25.91
46846;BME280;33947;46.804;134.252;2023-05-09T03:26:07;99836.50;;;14.09;26.80
46846;BME280;33947;46.804;134.252;2023-05-09T03:29:12;99928.16;;;15.75;25.99
46846;BME280;33947;46.804;134.252;2023-05-09T03:32:23;99942.81;;;15.84;26.47
46846;BME280;33947;46.804;134.252;2023-05-09T03:35:32;99920.25;;;14.59;26.44
46846;BME280;33947;46.804;134.252;2023-05-09T03:39:00;99950.53;;;14.94;25.62
46846;BME280;33947;46.804;134.252;2023-05-09T03:42:15;99930.09;;;15.57;25.37
46846;BME280;33947;46.804;134.252;2023-05-09T03:48:44;99919.31;;;15.26;25.76
46846;BME280;33947;46.804;134.252;2023-05-09T03:52:07;99938.03;;;15.26;25.41
46846;BME280;33947;46.804;134.252;2023-05-09T03:55:17;99941.78;;;15.40;25.70
46846;BME280;33947;46.804;134.252;2023-05-09T03:58:28;99993.16;;;14.97;25.64
46846;BME280;33947;46.804;134.252;2023-05-09T04:01:46;99972.81;;;15.10;26.04
46846;BME280;33947;46.804;134.252;2023-05-09T04:04:53;99980.25;;;15.53;25.74
46846;BME280;33947;46.804;134.252;2023-05-09T04:08:08;99984.38;;;15.11;25.88
46846;BME280;33947;46.804;134.252;2023-05-09T04:11:42;99975.22;;;13.39;27.17
46846;BME280;33947;46.804;134.252;2023-05-09T04:14:54;99976.53;;;13.68;27.68
46846;BME280;33947;46.804;134.252;2023-05-09T04:18:01;100020.97;;;14.24;27.51
46846;BME280;33947;46.804;134.252;2023-05-09T04:21:06;100032.66;;;13.67;28.37
46846;BME280;33947;46.804;134.252;2023-05-09T04:24:12;100043.09;;;13.91;28.44
46846;BME280;33947;46.804;134.252;2023-05-09T04:27:21;100049.53;;;14.04;28.58
46846;BME280;33947;46.804;134.252;2023-05-09T04:30:29;100050.88;;;13.57;28.32
46846;BME280;33947;46.804;134.252;2023-05-09T04:33:40;100060.44;;;13.42;29.56
46846;BME280;33947;46.804;134.252;2023-05-09T04:36:44;100071.78;;;14.76;27.79
46846;BME280;33947;46.804;134.252;2023-05-09T04:39:52;100075.88;;;15.17;27.87
46846;BME280;33947;46.804;134.252;2023-05-09T04:43:02;100076.09;;;14.79;27.86
46846;BME280;33947;46.804;134.252;2023-05-09T04:46:06;100074.78;;;14.70;28.39
46846;BME280;33947;46.804;134.252;2023-05-09T04:49:14;100076.63;;;13.77;28.87
46846;BME280;33947;46.804;134.252;2023-05-09T04:52:18;100079.91;;;14.38;28.92
46846;BME280;33947;46.804;134.252;2023-05-09T04:55:33;100090.44;;;14.24;27.28
46846;BME280;33947;46.804;134.252;2023-05-09T04:58:38;100090.13;;;14.30;27.65
46846;BME280;33947;46.804;134.252;2023-05-09T05:01:45;100090.44;;;14.24;28.20
46846;BME280;33947;46.804;134.252;2023-05-09T05:04:50;100097.88;;;13.00;28.00
46846;BME280;33947;46.804;134.252;2023-05-09T05:08:07;100108.63;;;12.99;29.15
46846;BME280;33947;46.804;134.252;2023-05-09T05:11:14;100112.91;;;13.22;29.03
46846;BME280;33947;46.804;134.252;2023-05-09T05:14:21;100117.53;;;13.18;28.97
46846;BME280;33947;46.804;134.252;2023-05-09T05:17:25;100129.81;;;13.42;29.83
46846;BME280;33947;46.804;134.252;2023-05-09T05:21:00;100071.97;;;11.97;30.48
46846;BME280;33947;46.804;134.252;2023-05-09T05:24:12;100137.88;;;12.14;31.89
46846;BME280;33947;46.804;134.252;2023-05-09T05:27:20;100122.94;;;12.10;31.75
46846;BME280;33947;46.804;134.252;2023-05-09T05:30:30;100161.91;;;12.78;32.03
46846;BME280;33947;46.804;134.252;2023-05-09T05:33:37;100154.53;;;12.20;32.70
46846;BME280;33947;46.804;134.252;2023-05-09T05:36:42;100165.41;;;11.18;34.43
46846;BME280;33947;46.804;134.252;2023-05-09T05:39:49;100156.16;;;11.28;33.95
46846;BME280;33947;46.804;134.252;2023-05-09T05:42:54;100164.03;;;11.32;34.24
46846;BME280;33947;46.804;134.252;2023-05-09T05:45:59;100165.31;;;11.69;33.97
46846;BME280;33947;46.804;134.252;2023-05-09T05:49:09;100159.53;;;12.05;32.44
46846;BME280;33947;46.804;134.252;2023-05-09T05:52:20;100170.19;;;12.05;32.27
46846;BME280;33947;46.804;134.252;2023-05-09T05:55:26;100179.28;;;11.76;32.38
46846;BME280;33947;46.804;134.252;2023-05-09T05:58:33;100162.28;;;11.54;32.30
46846;BME280;33947;46.804;134.252;2023-05-09T06:01:48;100187.56;;;11.42;32.39
46846;BME280;33947;46.804;134.252;2023-05-09T06:05:14;100175.97;;;12.39;32.00
46846;BME280;33947;46.804;134.252;2023-05-09T06:12:05;100180.72;;;12.08;32.30
46846;BME280;33947;46.804;134.252;2023-05-09T06:15:14;100180.22;;;12.65;32.45
46846;BME280;33947;46.804;134.252;2023-05-09T06:22:05;100118.25;;;11.23;32.89
46846;BME280;33947;46.804;134.252;2023-05-09T06:25:15;100184.63;;;11.74;32.69
46846;BME280;33947;46.804;134.252;2023-05-09T06:28:22;100169.56;;;11.75;32.54
46846;BME280;33947;46.804;134.252;2023-05-09T06:31:26;100201.56;;;11.71;33.40
46846;BME280;33947;46.804;134.252;2023-05-09T06:34:32;100202.22;;;11.04;34.17
46846;BME280;33947;46.804;134.252;2023-05-09T06:37:39;100199.16;;;10.34;35.68
46846;BME280;33947;46.804;134.252;2023-05-09T06:40:43;100221.59;;;9.93;36.25
46846;BME280;33947;46.804;134.252;2023-05-09T06:43:47;100235.50;;;10.32;36.43
46846;BME280;33947;46.804;134.252;2023-05-09T06:46:51;100233.41;;;11.24;35.64
46846;BME280;33947;46.804;134.252;2023-05-09T06:49:57;100218.22;;;11.27;34.61
46846;BME280;33947;46.804;134.252;2023-05-09T06:53:01;100215.28;;;11.61;34.44
46846;BME280;33947;46.804;134.252;2023-05-09T06:56:05;100235.72;;;11.84;33.86
46846;BME280;33947;46.804;134.252;2023-05-09T06:59:13;100243.47;;;11.90;34.35
46846;BME280;33947;46.804;134.252;2023-05-09T07:02:19;100237.31;;;12.13;33.37
46846;BME280;33947;46.804;134.252;2023-05-09T07:05:23;100233.56;;;11.70;33.56
46846;BME280;33947;46.804;134.252;2023-05-09T07:08:27;100253.19;;;11.42;33.37
46846;BME280;33947;46.804;134.252;2023-05-09T07:11:37;100249.88;;;11.84;32.37
46846;BME280;33947;46.804;134.252;2023-05-09T07:14:41;100234.94;;;11.31;33.68
46846;BME280;33947;46.804;134.252;2023-05-09T07:17:45;100241.25;;;11.02;33.42
46846;BME280;33947;46.804;134.252;2023-05-09T07:20:52;100250.53;;;11.42;33.18
46846;BME280;33947;46.804;134.252;2023-05-09T07:24:20;100212.25;;;10.38;34.37
46846;BME280;33947;46.804;134.252;2023-05-09T07:27:36;100256.97;;;11.35;33.44
46846;BME280;33947;46.804;134.252;2023-05-09T07:30:41;100253.97;;;10.65;34.74
46846;BME280;33947;46.804;134.252;2023-05-09T07:33:59;100273.78;;;10.83;35.43
46846;BME280;33947;46.804;134.252;2023-05-09T07:37:03;100242.28;;;10.42;35.62
46846;BME280;33947;46.804;134.252;2023-05-09T07:40:30;100251.34;;;10.63;36.02
46846;BME280;33947;46.804;134.252;2023-05-09T07:48:41;100291.38;;;10.85;35.97
46846;BME280;33947;46.804;134.252;2023-05-09T07:51:55;100241.31;;;10.73;35.44
46846;BME280;33947;46.804;134.252;2023-05-09T07:55:00;100281.66;;;10.86;35.37
46846;BME280;33947;46.804;134.252;2023-05-09T07:58:08;100280.38;;;10.41;37.39
46846;BME280;33947;46.804;134.252;2023-05-09T08:01:21;100263.81;;;10.31;37.08
46846;BME280;33947;46.804;134.252;2023-05-09T08:04:37;100313.88;;;9.82;38.91
46846;BME280;33947;46.804;134.252;2023-05-09T08:07:41;100297.00;;;9.53;39.51
46846;BME280;33947;46.804;134.252;2023-05-09T08:10:50;100274.97;;;9.49;39.39
46846;BME280;33947;46.804;134.252;2023-05-09T08:14:26;100315.13;;;9.68;39.00
46846;BME280;33947;46.804;134.252;2023-05-09T08:17:31;100295.00;;;9.26;39.68
46846;BME280;33947;46.804;134.252;2023-05-09T08:20:46;100277.03;;;9.03;39.86
46846;BME280;33947;46.804;134.252;2023-05-09T08:23:52;100317.81;;;9.34;40.07
46846;BME280;33947;46.804;134.252;2023-05-09T08:26:57;100329.94;;;9.77;39.96
46846;BME280;33947;46.804;134.252;2023-05-09T08:30:09;100324.81;;;9.69;39.59
46846;BME280;33947;46.804;134.252;2023-05-09T08:33:16;100331.75;;;10.08;39.40
46846;BME280;33947;46.804;134.252;2023-05-09T08:36:20;100338.19;;;9.98;39.62
46846;BME280;33947;46.804;134.252;2023-05-09T08:39:25;100323.19;;;9.97;39.49
46846;BME280;33947;46.804;134.252;2023-05-09T08:42:32;100296.47;;;9.38;40.70
46846;BME280;33947;46.804;134.252;2023-05-09T08:45:50;100341.84;;;9.26;42.54
46846;BME280;33947;46.804;134.252;2023-05-09T08:48:55;100344.41;;;9.31;41.29
46846;BME280;33947;46.804;134.252;2023-05-09T08:52:03;100340.84;;;9.65;40.83
46846;BME280;33947;46.804;134.252;2023-05-09T08:55:11;100350.03;;;9.53;41.28
46846;BME280;33947;46.804;134.252;2023-05-09T08:58:15;100341.03;;;9.92;40.59
46846;BME280;33947;46.804;134.252;2023-05-09T09:01:24;100305.47;;;9.66;40.58
46846;BME280;33947;46.804;134.252;2023-05-09T09:04:31;100339.47;;;9.83;40.77
46846;BME280;33947;46.804;134.252;2023-05-09T09:07:39;100358.84;;;9.87;40.98
46846;BME280;33947;46.804;134.252;2023-05-09T09:10:44;100343.69;;;9.92;40.51
46846;BME280;33947;46.804;134.252;2023-05-09T09:13:54;100359.19;;;9.74;41.27
46846;BME280;33947;46.804;134.252;2023-05-09T09:17:05;100363.63;;;9.39;42.27
46846;BME280;33947;46.804;134.252;2023-05-09T09:20:12;100379.50;;;9.75;41.55
46846;BME280;33947;46.804;134.252;2023-05-09T09:23:19;100375.63;;;9.54;42.09
46846;BME280;33947;46.804;134.252;2023-05-09T09:26:23;100386.56;;;9.40;43.96
46846;BME280;33947;46.804;134.252;2023-05-09T09:29:39;100357.75;;;9.26;42.66
46846;BME280;33947;46.804;134.252;2023-05-09T09:32:43;100389.41;;;9.32;42.67
46846;BME280;33947;46.804;134.252;2023-05-09T09:35:49;100394.69;;;9.34;42.64
46846;BME280;33947;46.804;134.252;2023-05-09T09:39:03;100394.41;;;9.07;43.39
46846;BME280;33947;46.804;134.252;2023-05-09T09:42:12;100389.94;;;9.10;43.14
46846;BME280;33947;46.804;134.252;2023-05-09T09:45:30;100338.03;;;8.62;43.34
46846;BME280;33947;46.804;134.252;2023-05-09T09:48:37;100396.09;;;9.11;43.03
46846;BME280;33947;46.804;134.252;2023-05-09T09:51:42;100410.53;;;8.97;43.22
46846;BME280;33947;46.804;134.252;2023-05-09T09:54:47;100397.59;;;8.82;43.39
46846;BME280;33947;46.804;134.252;2023-05-09T09:57:52;100398.41;;;8.43;44.50
46846;BME280;33947;46.804;134.252;2023-05-09T10:01:10;100369.13;;;8.51;44.19
46846;BME280;33947;46.804;134.252;2023-05-09T10:04:16;100411.53;;;8.92;43.63
46846;BME280;33947;46.804;134.252;2023-05-09T10:07:23;100404.56;;;8.88;43.37
46846;BME280;33947;46.804;134.252;2023-05-09T10:10:29;100418.16;;;8.72;43.59
46846;BME280;33947;46.804;134.252;2023-05-09T10:13:35;100422.06;;;8.52;43.94
46846;BME280;33947;46.804;134.252;2023-05-09T10:16:43;100404.59;;;8.42;43.99
46846;BME280;33947;46.804;134.252;2023-05-09T10:19:50;100414.50;;;8.31;44.21
46846;BME280;33947;46.804;134.252;2023-05-09T10:22:56;100439.94;;;8.39;44.47
46846;BME280;33947;46.804;134.252;2023-05-09T10:29:11;100438.09;;;7.97;45.29
46846;BME280;33947;46.804;134.252;2023-05-09T10:32:29;100451.81;;;7.66;46.54
46846;BME280;33947;46.804;134.252;2023-05-09T10:35:41;100455.28;;;7.70;46.21
46846;BME280;33947;46.804;134.252;2023-05-09T10:38:48;100447.44;;;7.65;45.81
46846;BME280;33947;46.804;134.252;2023-05-09T10:41:53;100465.72;;;7.79;45.60
46846;BME280;33947;46.804;134.252;2023-05-09T10:44:57;100475.47;;;7.76;46.23
46846;BME280;33947;46.804;134.252;2023-05-09T10:48:05;100474.56;;;7.77;46.33
46846;BME280;33947;46.804;134.252;2023-05-09T10:51:11;100472.84;;;7.74;46.08
46846;BME280;33947;46.804;134.252;2023-05-09T10:54:26;100488.81;;;7.68;47.17
46846;BME280;33947;46.804;134.252;2023-05-09T10:57:38;100487.84;;;7.72;47.02
46846;BME280;33947;46.804;134.252;2023-05-09T11:00:42;100488.00;;;7.64;46.64
46846;BME280;33947;46.804;134.252;2023-05-09T11:03:57;100501.91;;;7.74;47.01
46846;BME280;33947;46.804;134.252;2023-05-09T11:07:02;100507.47;;;7.59;46.99
46846;BME280;33947;46.804;134.252;2023-05-09T11:10:14;100499.53;;;7.57;47.50
46846;BME280;33947;46.804;134.252;2023-05-09T11:13:22;100504.81;;;7.59;46.93
46846;BME280;33947;46.804;134.252;2023-05-09T11:16:56;100513.09;;;7.35;48.21
46846;BME280;33947;46.804;134.252;2023-05-09T11:20:05;100489.31;;;7.34;47.23
46846;BME280;33947;46.804;134.252;2023-05-09T11:23:11;100506.06;;;7.33;47.76
46846;BME280;33947;46.804;134.252;2023-05-09T11:26:21;100504.41;;;7.27;48.14
46846;BME280;33947;46.804;134.252;2023-05-09T11:29:26;100525.44;;;7.32;48.51
46846;BME280;33947;46.804;134.252;2023-05-09T11:32:31;100520.22;;;7.30;48.56
46846;BME280;33947;46.804;134.252;2023-05-09T11:35:42;100511.53;;;7.22;49.07
46846;BME280;33947;46.804;134.252;2023-05-09T11:39:09;100527.34;;;7.23;49.89
46846;BME280;33947;46.804;134.252;2023-05-09T11:42:14;100514.22;;;7.17;49.33
46846;BME280;33947;46.804;134.252;2023-05-09T11:45:21;100524.72;;;7.22;49.23
46846;BME280;33947;46.804;134.252;2023-05-09T11:48:28;100524.66;;;7.27;49.51
46846;BME280;33947;46.804;134.252;2023-05-09T11:51:38;100532.44;;;7.39;49.17
46846;BME280;33947;46.804;134.252;2023-05-09T11:54:43;100530.72;;;7.33;49.80
46846;BME280;33947;46.804;134.252;2023-05-09T11:57:50;100543.91;;;7.36;49.53
46846;BME280;33947;46.804;134.252;2023-05-09T12:00:54;100544.75;;;7.38;49.58
46846;BME280;33947;46.804;134.252;2023-05-09T12:04:01;100537.72;;;7.36;49.72
46846;BME280;33947;46.804;134.252;2023-05-09T12:07:06;100546.59;;;7.32;50.53
46846;BME280;33947;46.804;134.252;2023-05-09T12:10:15;100558.84;;;7.37;50.23
46846;BME280;33947;46.804;134.252;2023-05-09T12:13:21;100527.38;;;7.19;50.21
46846;BME280;33947;46.804;134.252;2023-05-09T12:16:25;100550.25;;;7.21;50.52
46846;BME280;33947;46.804;134.252;2023-05-09T12:19:29;100541.59;;;7.08;50.22
46846;BME280;33947;46.804;134.252;2023-05-09T12:22:34;100556.41;;;7.23;50.66
46846;BME280;33947;46.804;134.252;2023-05-09T12:26:00;100549.63;;;7.01;52.02
46846;BME280;33947;46.804;134.252;2023-05-09T12:29:05;100561.03;;;7.04;51.55
46846;BME280;33947;46.804;134.252;2023-05-09T12:32:11;100559.59;;;6.75;53.70
46846;BME280;33947;46.804;134.252;2023-05-09T12:35:20;100554.16;;;6.91;51.18
46846;BME280;33947;46.804;134.252;2023-05-09T12:38:26;100452.59;;;6.45;51.58
46846;BME280;33947;46.804;134.252;2023-05-09T12:41:42;100474.47;;;6.56;51.93
46846;BME280;33947;46.804;134.252;2023-05-09T12:45:16;100394.13;;;6.07;51.84
46846;BME280;33947;46.804;134.252;2023-05-09T12:48:38;100525.13;;;6.91;52.12
46846;BME280;33947;46.804;134.252;2023-05-09T12:51:48;100569.59;;;7.23;52.28
46846;BME280;33947;46.804;134.252;2023-05-09T12:54:53;100567.94;;;7.16;51.92
46846;BME280;33947;46.804;134.252;2023-05-09T12:58:01;100573.22;;;7.15;54.98
46846;BME280;33947;46.804;134.252;2023-05-09T13:01:09;100551.31;;;7.08;51.95
46846;BME280;33947;46.804;134.252;2023-05-09T13:04:19;100566.34;;;7.00;52.45
46846;BME280;33947;46.804;134.252;2023-05-09T13:07:26;100573.94;;;7.28;52.41
46846;BME280;33947;46.804;134.252;2023-05-09T13:10:36;100547.66;;;7.18;52.19
46846;BME280;33947;46.804;134.252;2023-05-09T13:13:45;100572.16;;;7.31;52.44
46846;BME280;33947;46.804;134.252;2023-05-09T13:16:52;100553.75;;;7.25;52.48
46846;BME280;33947;46.804;134.252;2023-05-09T13:19:56;100580.03;;;7.34;53.22
46846;BME280;33947;46.804;134.252;2023-05-09T13:23:04;100582.69;;;7.34;52.86
46846;BME280;33947;46.804;134.252;2023-05-09T13:26:10;100603.84;;;7.33;52.85
46846;BME280;33947;46.804;134.252;2023-05-09T13:29:17;100571.44;;;7.18;53.29
46846;BME280;33947;46.804;134.252;2023-05-09T13:32:29;100567.22;;;7.05;53.94
46846;BME280;33947;46.804;134.252;2023-05-09T13:35:34;100580.09;;;7.30;53.32
46846;BME280;33947;46.804;134.252;2023-05-09T13:38:38;100583.78;;;7.15;53.86
46846;BME280;33947;46.804;134.252;2023-05-09T13:41:47;100571.69;;;6.97;53.86
46846;BME280;33947;46.804;134.252;2023-05-09T13:44:56;100588.03;;;7.30;53.00
46846;BME280;33947;46.804;134.252;2023-05-09T13:48:04;100573.38;;;7.04;53.12
46846;BME280;33947;46.804;134.252;2023-05-09T13:51:11;100576.09;;;6.96;52.99
46846;BME280;33947;46.804;134.252;2023-05-09T13:54:18;100587.72;;;6.83;53.95
46846;BME280;33947;46.804;134.252;2023-05-09T13:57:27;100567.66;;;6.61;54.29
46846;BME280;33947;46.804;134.252;2023-05-09T14:00:33;100611.63;;;6.64;54.53
46846;BME280;33947;46.804;134.252;2023-05-09T14:03:37;100600.47;;;6.34;55.52
46846;BME280;33947;46.804;134.252;2023-05-09T14:06:41;100600.28;;;6.54;55.34
46846;BME280;33947;46.804;134.252;2023-05-09T14:09:53;100619.53;;;6.69;54.63
46846;BME280;33947;46.804;134.252;2023-05-09T14:13:13;100599.50;;;6.43;55.55
46846;BME280;33947;46.804;134.252;2023-05-09T14:16:20;100558.22;;;6.39;54.82
46846;BME280;33947;46.804;134.252;2023-05-09T14:19:25;100602.75;;;6.71;54.16
46846;BME280;33947;46.804;134.252;2023-05-09T14:22:29;100538.91;;;6.33;54.30
46846;BME280;33947;46.804;134.252;2023-05-09T14:26:03;100629.81;;;6.93;54.66
46846;BME280;33947;46.804;134.252;2023-05-09T14:29:15;100606.16;;;6.84;54.12
46846;BME280;33947;46.804;134.252;2023-05-09T14:51:37;100640.44;;;6.87;56.76
46846;BME280;33947;46.804;134.252;2023-05-09T14:54:42;100667.63;;;7.00;56.36
46846;BME280;33947;46.804;134.252;2023-05-09T14:57:46;100658.28;;;6.62;56.85
46846;BME280;33947;46.804;134.252;2023-05-09T15:00:50;100667.91;;;6.71;57.24
46846;BME280;33947;46.804;134.252;2023-05-09T15:03:55;100679.50;;;6.51;59.16
46846;BME280;33947;46.804;134.252;2023-05-09T15:06:59;100654.94;;;6.43;57.79
46846;BME280;33947;46.804;134.252;2023-05-09T15:10:06;100681.28;;;6.46;57.64
46846;BME280;33947;46.804;134.252;2023-05-09T15:13:11;100640.91;;;6.37;57.27
46846;BME280;33947;46.804;134.252;2023-05-09T15:16:15;100681.94;;;6.76;56.43
46846;BME280;33947;46.804;134.252;2023-05-09T15:19:20;100654.16;;;6.30;57.85
46846;BME280;33947;46.804;134.252;2023-05-09T15:22:25;100685.59;;;6.56;57.67
46846;BME280;33947;46.804;134.252;2023-05-09T15:25:29;100684.69;;;6.60;57.69
46846;BME280;33947;46.804;134.252;2023-05-09T15:28:34;100669.69;;;6.69;57.60
46846;BME280;33947;46.804;134.252;2023-05-09T15:31:41;100689.06;;;6.68;57.31
46846;BME280;33947;46.804;134.252;2023-05-09T15:34:45;100693.53;;;6.56;58.16
46846;BME280;33947;46.804;134.252;2023-05-09T15:37:57;100697.00;;;6.64;58.15
46846;BME280;33947;46.804;134.252;2023-05-09T15:41:01;100615.47;;;6.29;57.19
46846;BME280;33947;46.804;134.252;2023-05-09T15:44:07;100680.19;;;6.73;56.88
46846;BME280;33947;46.804;134.252;2023-05-09T15:47:12;100709.06;;;6.90;56.45
46846;BME280;33947;46.804;134.252;2023-05-09T15:50:19;100701.38;;;6.69;56.53
46846;BME280;33947;46.804;134.252;2023-05-09T15:53:27;100700.41;;;6.76;56.95
46846;BME280;33947;46.804;134.252;2023-05-09T15:56:31;100691.72;;;6.64;56.60
46846;BME280;33947;46.804;134.252;2023-05-09T15:59:38;100722.50;;;6.65;57.66
46846;BME280;33947;46.804;134.252;2023-05-09T16:02:42;100705.75;;;6.68;57.08
46846;BME280;33947;46.804;134.252;2023-05-09T16:05:49;100710.19;;;6.61;57.24
46846;BME280;33947;46.804;134.252;2023-05-09T16:08:53;100707.69;;;6.46;58.07
46846;BME280;33947;46.804;134.252;2023-05-09T16:12:00;100685.91;;;6.14;58.55
46846;BME280;33947;46.804;134.252;2023-05-09T16:15:09;100716.63;;;6.25;59.53
46846;BME280;33947;46.804;134.252;2023-05-09T16:18:16;100707.00;;;6.16;59.12
46846;BME280;33947;46.804;134.252;2023-05-09T16:21:21;100731.44;;;6.41;58.79
46846;BME280;33947;46.804;134.252;2023-05-09T16:24:38;100731.56;;;6.27;59.38
46846;BME280;33947;46.804;134.252;2023-05-09T16:27:45;100718.50;;;6.01;59.77
46846;BME280;33947;46.804;134.252;2023-05-09T16:30:49;100734.31;;;6.05;60.03
46846;BME280;33947;46.804;134.252;2023-05-09T16:34:06;100718.50;;;5.98;60.19
46846;BME280;33947;46.804;134.252;2023-05-09T16:37:14;100729.91;;;6.07;60.82
46846;BME280;33947;46.804;134.252;2023-05-09T16:40:22;100728.16;;;6.06;60.44
46846;BME280;33947;46.804;134.252;2023-05-09T16:43:29;100729.09;;;5.90;61.02
46846;BME280;33947;46.804;134.252;2023-05-09T16:46:33;100735.19;;;6.04;60.79
46846;BME280;33947;46.804;134.252;2023-05-09T16:49:40;100743.13;;;6.01;60.85
46846;BME280;33947;46.804;134.252;2023-05-09T16:52:43;100747.50;;;5.99;61.19
46846;BME280;33947;46.804;134.252;2023-05-09T16:55:48;100755.31;;;6.27;60.67
46846;BME280;33947;46.804;134.252;2023-05-09T16:58:54;100740.47;;;6.04;60.95
46846;BME280;33947;46.804;134.252;2023-05-09T17:01:58;100733.50;;;5.88;60.97
46846;BME280;33947;46.804;134.252;2023-05-09T17:05:05;100763.34;;;6.07;60.76
46846;BME280;33947;46.804;134.252;2023-05-09T17:08:09;100746.66;;;5.94;61.20
46846;BME280;33947;46.804;134.252;2023-05-09T17:11:16;100765.13;;;5.86;61.84
46846;BME280;33947;46.804;134.252;2023-05-09T17:14:20;100752.88;;;5.68;62.10